sensor_id;sensor_type;location;lat;lon;timestamp;temperature;humidity
13482;DHT22;6813;60.352;15.746;2022-08-19T00:01:18;17.50;99.90
13482;DHT22;6813;60.352;15.746;2022-08-19T00:03:44;17.70;99.90
13482;DHT22;6813;60.352;15.746;2022-08-19T00:06:10;17.80;99.90
13482;DHT22;6813;60.352;15.746;2022-08-19T00:08:35;17.70;99.90
13482;DHT22;6813;60.352;15.746;2022-08-19T00:11:01;17.80;99.90
13482;DHT22;6813;60.352;15.746;2022-08-19T00:13:27;18.00;99.90
13482;DHT22;6813;60.352;15.746;2022-08-19T00:15:55;18.20;99.90
13482;DHT22;6813;60.352;15.746;2022-08-19T00:18:20;17.90;99.90
13482;DHT22;6813;60.352;15.746;2022-08-19T00:20:46;17.80;99.90
13482;DHT22;6813;60.352;15.746;2022-08-19T00:23:12;17.80;99.90
13482;DHT22;6813;60.352;15.746;2022-08-19T00:25:38;18.00;99.90
13482;DHT22;6813;60.352;15.746;2022-08-19T00:28:04;17.90;99.90
13482;DHT22;6813;60.352;15.746;2022-08-19T00:30:30;17.90;99.90
13482;DHT22;6813;60.352;15.746;2022-08-19T00:32:56;18.00;99.90
13482;DHT22;6813;60.352;15.746;2022-08-19T00:35:23;18.20;99.90
13482;DHT22;6813;60.352;15.746;2022-08-19T00:37:49;18.10;99.90
13482;DHT22;6813;60.352;15.746;2022-08-19T00:40:17;18.00;99.90
13482;DHT22;6813;60.352;15.746;2022-08-19T00:42:45;17.70;99.90
13482;DHT22;6813;60.352;15.746;2022-08-19T00:45:20;17.60;99.90
13482;DHT22;6813;60.352;15.746;2022-08-19T00:47:46;17.60;99.90
13482;DHT22;6813;60.352;15.746;2022-08-19T00:50:14;17.70;99.90
13482;DHT22;6813;60.352;15.746;2022-08-19T00:52:43;17.60;99.90
13482;DHT22;6813;60.352;15.746;2022-08-19T00:55:23;17.60;99.90
13482;DHT22;6813;60.352;15.746;2022-08-19T00:58:04;17.70;99.90
13482;DHT22;6813;60.352;15.746;2022-08-19T01:00:32;17.80;99.90
13482;DHT22;6813;60.352;15.746;2022-08-19T01:03:02;17.90;99.90
13482;DHT22;6813;60.352;15.746;2022-08-19T01:05:29;18.00;99.90
13482;DHT22;6813;60.352;15.746;2022-08-19T01:07:56;18.10;99.90
13482;DHT22;6813;60.352;15.746;2022-08-19T01:10:25;18.20;99.90
13482;DHT22;6813;60.352;15.746;2022-08-19T01:12:52;18.30;99.90
13482;DHT22;6813;60.352;15.746;2022-08-19T01:15:22;18.40;99.90
13482;DHT22;6813;60.352;15.746;2022-08-19T01:17:50;18.40;99.90
13482;DHT22;6813;60.352;15.746;2022-08-19T01:20:20;18.50;99.90
13482;DHT22;6813;60.352;15.746;2022-08-19T01:23:00;18.60;99.90
13482;DHT22;6813;60.352;15.746;2022-08-19T01:25:32;18.50;99.90
13482;DHT22;6813;60.352;15.746;2022-08-19T01:27:59;18.30;99.90
13482;DHT22;6813;60.352;15.746;2022-08-19T01:30:29;18.00;99.90
13482;DHT22;6813;60.352;15.746;2022-08-19T01:32:56;18.00;99.90
13482;DHT22;6813;60.352;15.746;2022-08-19T01:35:24;18.10;99.90
13482;DHT22;6813;60.352;15.746;2022-08-19T01:40:20;18.30;99.90
13482;DHT22;6813;60.352;15.746;2022-08-19T01:42:48;18.20;99.90
13482;DHT22;6813;60.352;15.746;2022-08-19T01:45:17;18.10;99.90
13482;DHT22;6813;60.352;15.746;2022-08-19T01:47:47;18.20;99.90
13482;DHT22;6813;60.352;15.746;2022-08-19T01:50:13;18.30;99.90
13482;DHT22;6813;60.352;15.746;2022-08-19T01:52:40;18.40;99.90
13482;DHT22;6813;60.352;15.746;2022-08-19T01:55:09;18.20;99.90
13482;DHT22;6813;60.352;15.746;2022-08-19T01:57:35;17.90;99.90
13482;DHT22;6813;60.352;15.746;2022-08-19T02:00:05;18.00;99.90
13482;DHT22;6813;60.352;15.746;2022-08-19T02:02:31;17.90;99.90
13482;DHT22;6813;60.352;15.746;2022-08-19T02:04:58;17.90;99.90
13482;DHT22;6813;60.352;15.746;2022-08-19T02:07:24;17.80;99.90
13482;DHT22;6813;60.352;15.746;2022-08-19T02:09:50;17.60;99.90
13482;DHT22;6813;60.352;15.746;2022-08-19T02:12:16;17.50;99.90
13482;DHT22;6813;60.352;15.746;2022-08-19T02:14:42;17.30;99.90
13482;DHT22;6813;60.352;15.746;2022-08-19T02:17:08;17.30;99.90
13482;DHT22;6813;60.352;15.746;2022-08-19T02:19:34;17.20;99.90
13482;DHT22;6813;60.352;15.746;2022-08-19T02:22:00;17.10;99.90
13482;DHT22;6813;60.352;15.746;2022-08-19T02:24:27;17.20;99.90
13482;DHT22;6813;60.352;15.746;2022-08-19T02:26:53;17.20;99.90
13482;DHT22;6813;60.352;15.746;2022-08-19T02:29:19;17.10;99.90
13482;DHT22;6813;60.352;15.746;2022-08-19T02:31:45;17.00;99.90
13482;DHT22;6813;60.352;15.746;2022-08-19T02:34:11;17.00;99.90
13482;DHT22;6813;60.352;15.746;2022-08-19T02:36:37;17.00;99.90
13482;DHT22;6813;60.352;15.746;2022-08-19T02:39:03;17.00;99.90
13482;DHT22;6813;60.352;15.746;2022-08-19T02:41:32;17.10;99.90
13482;DHT22;6813;60.352;15.746;2022-08-19T02:44:00;17.10;99.90
13482;DHT22;6813;60.352;15.746;2022-08-19T02:46:29;17.10;99.90
13482;DHT22;6813;60.352;15.746;2022-08-19T02:49:06;17.10;99.90
13482;DHT22;6813;60.352;15.746;2022-08-19T02:51:36;17.00;99.90
13482;DHT22;6813;60.352;15.746;2022-08-19T02:54:03;17.10;99.90
13482;DHT22;6813;60.352;15.746;2022-08-19T02:56:30;17.10;99.90
13482;DHT22;6813;60.352;15.746;2022-08-19T02:58:57;17.20;99.90
13482;DHT22;6813;60.352;15.746;2022-08-19T03:01:28;17.10;99.90
13482;DHT22;6813;60.352;15.746;2022-08-19T03:03:55;17.00;99.90
13482;DHT22;6813;60.352;15.746;2022-08-19T03:06:21;17.00;99.90
13482;DHT22;6813;60.352;15.746;2022-08-19T03:08:48;17.00;99.90
13482;DHT22;6813;60.352;15.746;2022-08-19T03:11:17;17.00;99.90
13482;DHT22;6813;60.352;15.746;2022-08-19T03:13:44;17.10;99.90
13482;DHT22;6813;60.352;15.746;2022-08-19T03:16:11;17.00;99.90
13482;DHT22;6813;60.352;15.746;2022-08-19T03:18:37;17.00;99.90
13482;DHT22;6813;60.352;15.746;2022-08-19T03:21:03;17.00;99.90
13482;DHT22;6813;60.352;15.746;2022-08-19T03:23:29;16.90;99.90
13482;DHT22;6813;60.352;15.746;2022-08-19T03:25:54;17.00;99.90
13482;DHT22;6813;60.352;15.746;2022-08-19T03:28:21;17.00;99.90
13482;DHT22;6813;60.352;15.746;2022-08-19T03:31:02;17.00;99.90
13482;DHT22;6813;60.352;15.746;2022-08-19T03:33:30;17.10;99.90
13482;DHT22;6813;60.352;15.746;2022-08-19T03:38:33;17.00;99.90
13482;DHT22;6813;60.352;15.746;2022-08-19T03:41:03;16.90;99.90
13482;DHT22;6813;60.352;15.746;2022-08-19T03:43:32;16.90;99.90
13482;DHT22;6813;60.352;15.746;2022-08-19T03:46:02;17.00;99.90
13482;DHT22;6813;60.352;15.746;2022-08-19T03:48:29;17.00;99.90
13482;DHT22;6813;60.352;15.746;2022-08-19T03:50:56;17.00;99.90
13482;DHT22;6813;60.352;15.746;2022-08-19T03:53:23;17.00;99.90
13482;DHT22;6813;60.352;15.746;2022-08-19T03:55:48;17.00;99.90
13482;DHT22;6813;60.352;15.746;2022-08-19T03:58:14;17.00;99.90
13482;DHT22;6813;60.352;15.746;2022-08-19T04:00:42;17.00;99.90
13482;DHT22;6813;60.352;15.746;2022-08-19T04:03:08;17.00;99.90
13482;DHT22;6813;60.352;15.746;2022-08-19T04:05:34;17.00;99.90
13482;DHT22;6813;60.352;15.746;2022-08-19T04:08:00;17.00;99.90
13482;DHT22;6813;60.352;15.746;2022-08-19T04:10:27;17.00;99.90
13482;DHT22;6813;60.352;15.746;2022-08-19T04:12:53;17.00;99.90
13482;DHT22;6813;60.352;15.746;2022-08-19T04:15:19;17.20;99.90
13482;DHT22;6813;60.352;15.746;2022-08-19T04:17:46;17.20;99.90
13482;DHT22;6813;60.352;15.746;2022-08-19T04:20:11;17.30;99.90
13482;DHT22;6813;60.352;15.746;2022-08-19T04:22:37;17.30;99.90
13482;DHT22;6813;60.352;15.746;2022-08-19T04:25:03;17.40;99.90
13482;DHT22;6813;60.352;15.746;2022-08-19T04:27:29;17.50;99.90
13482;DHT22;6813;60.352;15.746;2022-08-19T04:29:57;17.50;99.90
13482;DHT22;6813;60.352;15.746;2022-08-19T04:32:22;17.50;99.90
13482;DHT22;6813;60.352;15.746;2022-08-19T04:34:48;17.40;99.90
13482;DHT22;6813;60.352;15.746;2022-08-19T04:37:14;17.40;99.90
13482;DHT22;6813;60.352;15.746;2022-08-19T04:39:40;17.40;99.90
13482;DHT22;6813;60.352;15.746;2022-08-19T04:42:24;17.40;99.90
13482;DHT22;6813;60.352;15.746;2022-08-19T04:45:11;17.40;99.90
13482;DHT22;6813;60.352;15.746;2022-08-19T04:47:38;17.40;99.90
13482;DHT22;6813;60.352;15.746;2022-08-19T04:50:05;17.40;99.90
13482;DHT22;6813;60.352;15.746;2022-08-19T04:52:31;17.40;99.90
13482;DHT22;6813;60.352;15.746;2022-08-19T04:54:58;17.50;99.90
13482;DHT22;6813;60.352;15.746;2022-08-19T04:57:24;17.50;99.90
13482;DHT22;6813;60.352;15.746;2022-08-19T04:59:54;17.50;99.90
13482;DHT22;6813;60.352;15.746;2022-08-19T05:02:20;17.60;99.90
13482;DHT22;6813;60.352;15.746;2022-08-19T05:04:47;17.60;99.90
13482;DHT22;6813;60.352;15.746;2022-08-19T05:07:13;17.60;99.90
13482;DHT22;6813;60.352;15.746;2022-08-19T05:09:39;17.60;99.90
13482;DHT22;6813;60.352;15.746;2022-08-19T05:12:05;17.60;99.90
13482;DHT22;6813;60.352;15.746;2022-08-19T05:14:31;17.70;99.90
13482;DHT22;6813;60.352;15.746;2022-08-19T05:16:57;17.80;99.90
13482;DHT22;6813;60.352;15.746;2022-08-19T05:19:23;17.90;99.90
13482;DHT22;6813;60.352;15.746;2022-08-19T05:22:07;18.00;99.90
13482;DHT22;6813;60.352;15.746;2022-08-19T05:25:15;17.90;99.90
13482;DHT22;6813;60.352;15.746;2022-08-19T05:27:43;17.90;99.90
13482;DHT22;6813;60.352;15.746;2022-08-19T05:30:10;18.00;99.90
13482;DHT22;6813;60.352;15.746;2022-08-19T05:32:37;18.10;99.90
13482;DHT22;6813;60.352;15.746;2022-08-19T05:35:04;18.10;99.90
13482;DHT22;6813;60.352;15.746;2022-08-19T05:37:30;18.10;99.90
13482;DHT22;6813;60.352;15.746;2022-08-19T05:39:55;18.20;99.90
13482;DHT22;6813;60.352;15.746;2022-08-19T05:42:22;18.20;99.90
13482;DHT22;6813;60.352;15.746;2022-08-19T05:44:48;18.20;99.90
13482;DHT22;6813;60.352;15.746;2022-08-19T05:47:15;18.20;99.90
13482;DHT22;6813;60.352;15.746;2022-08-19T05:49:42;18.20;99.90
13482;DHT22;6813;60.352;15.746;2022-08-19T05:52:10;18.20;99.90
13482;DHT22;6813;60.352;15.746;2022-08-19T05:54:39;18.10;99.90
13482;DHT22;6813;60.352;15.746;2022-08-19T05:57:07;18.00;99.90
13482;DHT22;6813;60.352;15.746;2022-08-19T05:59:33;18.10;99.90
13482;DHT22;6813;60.352;15.746;2022-08-19T06:02:02;18.10;99.90
13482;DHT22;6813;60.352;15.746;2022-08-19T06:04:27;18.20;99.90
13482;DHT22;6813;60.352;15.746;2022-08-19T06:06:54;18.10;99.90
13482;DHT22;6813;60.352;15.746;2022-08-19T06:09:22;18.10;99.90
13482;DHT22;6813;60.352;15.746;2022-08-19T06:11:53;18.20;99.90
13482;DHT22;6813;60.352;15.746;2022-08-19T06:14:26;18.20;99.90
13482;DHT22;6813;60.352;15.746;2022-08-19T06:16:51;18.20;99.90
13482;DHT22;6813;60.352;15.746;2022-08-19T06:19:19;18.20;99.90
13482;DHT22;6813;60.352;15.746;2022-08-19T06:21:47;18.10;99.90
13482;DHT22;6813;60.352;15.746;2022-08-19T06:24:15;18.20;99.90
13482;DHT22;6813;60.352;15.746;2022-08-19T06:26:43;18.30;99.90
13482;DHT22;6813;60.352;15.746;2022-08-19T06:29:11;18.40;99.90
13482;DHT22;6813;60.352;15.746;2022-08-19T06:31:40;18.60;99.90
13482;DHT22;6813;60.352;15.746;2022-08-19T06:34:06;18.70;99.90
13482;DHT22;6813;60.352;15.746;2022-08-19T06:36:47;18.90;99.90
13482;DHT22;6813;60.352;15.746;2022-08-19T06:39:36;18.90;99.90
13482;DHT22;6813;60.352;15.746;2022-08-19T06:42:04;18.80;99.90
13482;DHT22;6813;60.352;15.746;2022-08-19T06:44:34;18.80;99.90
13482;DHT22;6813;60.352;15.746;2022-08-19T06:47:05;18.70;99.90
13482;DHT22;6813;60.352;15.746;2022-08-19T06:49:32;18.60;99.90
13482;DHT22;6813;60.352;15.746;2022-08-19T06:51:59;18.60;99.90
13482;DHT22;6813;60.352;15.746;2022-08-19T06:54:26;18.50;99.90
13482;DHT22;6813;60.352;15.746;2022-08-19T06:56:52;18.50;99.90
13482;DHT22;6813;60.352;15.746;2022-08-19T06:59:20;18.60;99.90
13482;DHT22;6813;60.352;15.746;2022-08-19T07:01:51;18.70;99.90
13482;DHT22;6813;60.352;15.746;2022-08-19T07:04:20;18.70;99.90
13482;DHT22;6813;60.352;15.746;2022-08-19T07:06:47;18.70;99.90
13482;DHT22;6813;60.352;15.746;2022-08-19T07:09:15;18.80;99.90
13482;DHT22;6813;60.352;15.746;2022-08-19T07:11:46;18.80;99.90
13482;DHT22;6813;60.352;15.746;2022-08-19T07:14:15;18.70;99.90
13482;DHT22;6813;60.352;15.746;2022-08-19T07:16:44;18.70;99.90
13482;DHT22;6813;60.352;15.746;2022-08-19T07:19:11;18.80;99.90
13482;DHT22;6813;60.352;15.746;2022-08-19T07:21:37;18.90;99.90
13482;DHT22;6813;60.352;15.746;2022-08-19T07:24:03;18.90;99.90
13482;DHT22;6813;60.352;15.746;2022-08-19T07:26:32;19.00;99.90
13482;DHT22;6813;60.352;15.746;2022-08-19T07:28:59;19.00;99.90
13482;DHT22;6813;60.352;15.746;2022-08-19T07:31:27;19.00;99.90
13482;DHT22;6813;60.352;15.746;2022-08-19T07:33:55;18.90;99.90
13482;DHT22;6813;60.352;15.746;2022-08-19T07:36:25;18.90;99.90
13482;DHT22;6813;60.352;15.746;2022-08-19T07:38:54;19.00;99.90
13482;DHT22;6813;60.352;15.746;2022-08-19T07:41:23;19.00;99.90
13482;DHT22;6813;60.352;15.746;2022-08-19T07:43:49;19.00;99.90
13482;DHT22;6813;60.352;15.746;2022-08-19T07:46:16;19.00;99.90
13482;DHT22;6813;60.352;15.746;2022-08-19T07:48:43;19.00;99.90
13482;DHT22;6813;60.352;15.746;2022-08-19T07:51:17;19.10;99.90
13482;DHT22;6813;60.352;15.746;2022-08-19T07:53:44;19.10;99.90
13482;DHT22;6813;60.352;15.746;2022-08-19T07:56:12;19.10;99.90
13482;DHT22;6813;60.352;15.746;2022-08-19T07:58:41;19.20;99.90
13482;DHT22;6813;60.352;15.746;2022-08-19T08:01:10;19.20;99.90
13482;DHT22;6813;60.352;15.746;2022-08-19T08:03:37;19.30;99.90
13482;DHT22;6813;60.352;15.746;2022-08-19T08:06:22;19.40;99.90
13482;DHT22;6813;60.352;15.746;2022-08-19T08:09:07;19.50;99.90
13482;DHT22;6813;60.352;15.746;2022-08-19T08:11:56;19.50;99.90
13482;DHT22;6813;60.352;15.746;2022-08-19T08:14:47;19.60;99.90
13482;DHT22;6813;60.352;15.746;2022-08-19T08:17:17;19.60;99.90
13482;DHT22;6813;60.352;15.746;2022-08-19T08:19:43;19.60;99.90
13482;DHT22;6813;60.352;15.746;2022-08-19T08:22:11;19.70;99.90
13482;DHT22;6813;60.352;15.746;2022-08-19T08:25:14;19.70;99.90
13482;DHT22;6813;60.352;15.746;2022-08-19T08:27:42;19.60;99.90
13482;DHT22;6813;60.352;15.746;2022-08-19T08:30:20;19.60;99.90
13482;DHT22;6813;60.352;15.746;2022-08-19T08:32:46;19.50;99.90
13482;DHT22;6813;60.352;15.746;2022-08-19T08:35:15;19.50;99.90
13482;DHT22;6813;60.352;15.746;2022-08-19T08:37:43;19.50;99.90
13482;DHT22;6813;60.352;15.746;2022-08-19T08:40:29;19.60;99.90
13482;DHT22;6813;60.352;15.746;2022-08-19T08:45:28;19.70;99.90
13482;DHT22;6813;60.352;15.746;2022-08-19T08:47:58;19.90;99.90
13482;DHT22;6813;60.352;15.746;2022-08-19T08:50:32;20.00;99.90
13482;DHT22;6813;60.352;15.746;2022-08-19T08:53:02;20.00;99.90
13482;DHT22;6813;60.352;15.746;2022-08-19T08:55:30;20.00;99.90
13482;DHT22;6813;60.352;15.746;2022-08-19T08:58:01;20.10;99.90
13482;DHT22;6813;60.352;15.746;2022-08-19T09:00:31;20.00;99.90
13482;DHT22;6813;60.352;15.746;2022-08-19T09:02:59;20.00;99.90
13482;DHT22;6813;60.352;15.746;2022-08-19T09:08:10;20.00;99.90
13482;DHT22;6813;60.352;15.746;2022-08-19T09:10:44;20.10;99.90
13482;DHT22;6813;60.352;15.746;2022-08-19T09:16:07;20.30;99.90
13482;DHT22;6813;60.352;15.746;2022-08-19T09:18:45;20.40;99.90
13482;DHT22;6813;60.352;15.746;2022-08-19T09:21:13;20.60;99.90
13482;DHT22;6813;60.352;15.746;2022-08-19T09:23:39;20.70;99.90
13482;DHT22;6813;60.352;15.746;2022-08-19T09:26:11;20.60;99.90
13482;DHT22;6813;60.352;15.746;2022-08-19T09:28:40;20.50;99.90
13482;DHT22;6813;60.352;15.746;2022-08-19T09:31:19;20.40;99.90
13482;DHT22;6813;60.352;15.746;2022-08-19T09:33:45;20.40;99.90
13482;DHT22;6813;60.352;15.746;2022-08-19T09:36:14;20.40;99.90
13482;DHT22;6813;60.352;15.746;2022-08-19T09:38:40;20.60;99.90
13482;DHT22;6813;60.352;15.746;2022-08-19T09:41:09;20.60;99.90
13482;DHT22;6813;60.352;15.746;2022-08-19T09:43:38;20.70;99.90
13482;DHT22;6813;60.352;15.746;2022-08-19T09:46:05;21.00;99.90
13482;DHT22;6813;60.352;15.746;2022-08-19T09:48:41;21.20;99.90
13482;DHT22;6813;60.352;15.746;2022-08-19T09:51:10;21.30;99.90
13482;DHT22;6813;60.352;15.746;2022-08-19T09:53:37;21.20;99.90
13482;DHT22;6813;60.352;15.746;2022-08-19T09:56:04;21.10;99.90
13482;DHT22;6813;60.352;15.746;2022-08-19T09:58:34;21.00;99.90
13482;DHT22;6813;60.352;15.746;2022-08-19T10:01:01;21.00;99.90
13482;DHT22;6813;60.352;15.746;2022-08-19T10:03:28;20.90;99.90
13482;DHT22;6813;60.352;15.746;2022-08-19T10:05:55;20.90;99.90
13482;DHT22;6813;60.352;15.746;2022-08-19T10:08:26;21.10;99.90
13482;DHT22;6813;60.352;15.746;2022-08-19T10:10:53;21.10;99.90
13482;DHT22;6813;60.352;15.746;2022-08-19T10:13:22;21.20;99.90
13482;DHT22;6813;60.352;15.746;2022-08-19T10:15:49;21.30;99.90
13482;DHT22;6813;60.352;15.746;2022-08-19T10:18:20;21.40;99.90
13482;DHT22;6813;60.352;15.746;2022-08-19T10:20:47;21.60;99.90
13482;DHT22;6813;60.352;15.746;2022-08-19T10:23:14;21.60;99.90
13482;DHT22;6813;60.352;15.746;2022-08-19T10:25:41;21.70;99.90
13482;DHT22;6813;60.352;15.746;2022-08-19T10:28:07;21.90;99.90
13482;DHT22;6813;60.352;15.746;2022-08-19T10:30:35;22.10;99.90
13482;DHT22;6813;60.352;15.746;2022-08-19T10:33:01;22.20;99.90
13482;DHT22;6813;60.352;15.746;2022-08-19T10:35:27;22.30;99.90
13482;DHT22;6813;60.352;15.746;2022-08-19T10:37:55;22.50;99.90
13482;DHT22;6813;60.352;15.746;2022-08-19T10:40:25;22.40;99.90
13482;DHT22;6813;60.352;15.746;2022-08-19T10:42:52;22.20;99.90
13482;DHT22;6813;60.352;15.746;2022-08-19T10:45:17;22.10;99.90
13482;DHT22;6813;60.352;15.746;2022-08-19T10:47:43;22.10;99.90
13482;DHT22;6813;60.352;15.746;2022-08-19T10:50:09;22.20;99.90
13482;DHT22;6813;60.352;15.746;2022-08-19T10:52:54;22.30;99.90
13482;DHT22;6813;60.352;15.746;2022-08-19T10:55:23;22.30;99.90
13482;DHT22;6813;60.352;15.746;2022-08-19T10:58:17;22.40;99.90
13482;DHT22;6813;60.352;15.746;2022-08-19T11:00:55;22.30;99.90
13482;DHT22;6813;60.352;15.746;2022-08-19T11:03:22;22.40;99.90
13482;DHT22;6813;60.352;15.746;2022-08-19T11:06:00;22.60;99.90
13482;DHT22;6813;60.352;15.746;2022-08-19T11:08:25;22.70;99.90
13482;DHT22;6813;60.352;15.746;2022-08-19T11:10:53;22.80;99.90
13482;DHT22;6813;60.352;15.746;2022-08-19T11:13:30;23.10;99.90
13482;DHT22;6813;60.352;15.746;2022-08-19T11:16:03;23.10;99.90
13482;DHT22;6813;60.352;15.746;2022-08-19T11:18:30;23.20;99.90
13482;DHT22;6813;60.352;15.746;2022-08-19T11:21:07;23.30;99.90
13482;DHT22;6813;60.352;15.746;2022-08-19T11:23:33;23.40;99.90
13482;DHT22;6813;60.352;15.746;2022-08-19T11:25:59;23.50;99.90
13482;DHT22;6813;60.352;15.746;2022-08-19T11:28:26;23.70;99.90
13482;DHT22;6813;60.352;15.746;2022-08-19T11:30:52;23.80;99.90
13482;DHT22;6813;60.352;15.746;2022-08-19T11:33:19;23.90;99.90
13482;DHT22;6813;60.352;15.746;2022-08-19T11:35:44;23.90;99.90
13482;DHT22;6813;60.352;15.746;2022-08-19T11:38:11;23.90;99.90
13482;DHT22;6813;60.352;15.746;2022-08-19T11:40:38;23.80;99.90
13482;DHT22;6813;60.352;15.746;2022-08-19T11:43:05;23.60;99.90
13482;DHT22;6813;60.352;15.746;2022-08-19T11:45:31;23.60;99.90
13482;DHT22;6813;60.352;15.746;2022-08-19T11:47:57;23.50;99.90
13482;DHT22;6813;60.352;15.746;2022-08-19T11:50:24;23.60;99.90
13482;DHT22;6813;60.352;15.746;2022-08-19T11:52:52;23.70;99.90
13482;DHT22;6813;60.352;15.746;2022-08-19T11:55:21;23.80;99.90
13482;DHT22;6813;60.352;15.746;2022-08-19T11:57:47;24.00;99.90
13482;DHT22;6813;60.352;15.746;2022-08-19T12:00:14;24.10;99.90
13482;DHT22;6813;60.352;15.746;2022-08-19T12:02:40;24.10;99.90
13482;DHT22;6813;60.352;15.746;2022-08-19T12:05:07;24.10;99.90
13482;DHT22;6813;60.352;15.746;2022-08-19T12:07:33;24.20;99.90
13482;DHT22;6813;60.352;15.746;2022-08-19T12:10:00;24.40;99.90
13482;DHT22;6813;60.352;15.746;2022-08-19T12:12:26;24.30;99.90
13482;DHT22;6813;60.352;15.746;2022-08-19T12:14:53;24.50;99.90
13482;DHT22;6813;60.352;15.746;2022-08-19T12:17:25;24.50;99.90
13482;DHT22;6813;60.352;15.746;2022-08-19T12:19:52;24.50;99.90
13482;DHT22;6813;60.352;15.746;2022-08-19T12:22:18;24.30;99.90
13482;DHT22;6813;60.352;15.746;2022-08-19T12:24:44;24.30;99.90
13482;DHT22;6813;60.352;15.746;2022-08-19T12:27:09;24.50;99.90
13482;DHT22;6813;60.352;15.746;2022-08-19T12:29:35;24.70;99.90
13482;DHT22;6813;60.352;15.746;2022-08-19T12:32:02;24.80;99.90
13482;DHT22;6813;60.352;15.746;2022-08-19T12:34:29;24.90;99.90
13482;DHT22;6813;60.352;15.746;2022-08-19T12:37:00;25.00;99.90
13482;DHT22;6813;60.352;15.746;2022-08-19T12:39:26;25.10;99.90
13482;DHT22;6813;60.352;15.746;2022-08-19T12:41:54;25.30;99.90
13482;DHT22;6813;60.352;15.746;2022-08-19T12:44:20;25.40;99.90
13482;DHT22;6813;60.352;15.746;2022-08-19T12:46:46;25.40;99.90
13482;DHT22;6813;60.352;15.746;2022-08-19T12:49:12;25.20;99.90
13482;DHT22;6813;60.352;15.746;2022-08-19T12:51:41;25.10;99.90
13482;DHT22;6813;60.352;15.746;2022-08-19T12:54:08;25.10;99.90
13482;DHT22;6813;60.352;15.746;2022-08-19T12:56:33;25.00;99.90
13482;DHT22;6813;60.352;15.746;2022-08-19T12:59:03;24.70;99.90
13482;DHT22;6813;60.352;15.746;2022-08-19T13:01:29;24.70;99.90
13482;DHT22;6813;60.352;15.746;2022-08-19T13:03:58;24.60;99.90
13482;DHT22;6813;60.352;15.746;2022-08-19T13:06:25;24.60;99.90
13482;DHT22;6813;60.352;15.746;2022-08-19T13:08:51;24.70;99.90
13482;DHT22;6813;60.352;15.746;2022-08-19T13:11:19;24.80;99.90
13482;DHT22;6813;60.352;15.746;2022-08-19T13:13:48;24.90;99.90
13482;DHT22;6813;60.352;15.746;2022-08-19T13:16:16;25.00;99.90
13482;DHT22;6813;60.352;15.746;2022-08-19T13:18:44;24.90;99.90
13482;DHT22;6813;60.352;15.746;2022-08-19T13:21:11;24.90;99.90
13482;DHT22;6813;60.352;15.746;2022-08-19T13:23:38;24.80;99.90
13482;DHT22;6813;60.352;15.746;2022-08-19T13:26:07;24.70;99.90
13482;DHT22;6813;60.352;15.746;2022-08-19T13:28:34;24.60;99.90
13482;DHT22;6813;60.352;15.746;2022-08-19T13:31:20;24.70;99.90
13482;DHT22;6813;60.352;15.746;2022-08-19T13:34:05;24.70;99.90
13482;DHT22;6813;60.352;15.746;2022-08-19T13:36:32;24.90;99.90
13482;DHT22;6813;60.352;15.746;2022-08-19T13:38:58;25.00;99.90
13482;DHT22;6813;60.352;15.746;2022-08-19T13:41:26;25.20;99.90
13482;DHT22;6813;60.352;15.746;2022-08-19T13:43:52;25.30;99.90
13482;DHT22;6813;60.352;15.746;2022-08-19T13:46:19;25.30;99.90
13482;DHT22;6813;60.352;15.746;2022-08-19T13:48:45;25.10;99.90
13482;DHT22;6813;60.352;15.746;2022-08-19T13:51:11;25.20;99.90
13482;DHT22;6813;60.352;15.746;2022-08-19T13:53:38;25.30;99.90
13482;DHT22;6813;60.352;15.746;2022-08-19T13:56:09;25.20;99.90
13482;DHT22;6813;60.352;15.746;2022-08-19T13:58:36;25.20;99.90
13482;DHT22;6813;60.352;15.746;2022-08-19T14:01:03;25.20;99.90
13482;DHT22;6813;60.352;15.746;2022-08-19T14:03:31;25.30;99.90
13482;DHT22;6813;60.352;15.746;2022-08-19T14:05:58;25.30;99.90
13482;DHT22;6813;60.352;15.746;2022-08-19T14:08:25;25.30;99.90
13482;DHT22;6813;60.352;15.746;2022-08-19T14:10:53;25.40;99.90
13482;DHT22;6813;60.352;15.746;2022-08-19T14:13:21;25.40;99.90
13482;DHT22;6813;60.352;15.746;2022-08-19T14:15:49;25.40;99.90
13482;DHT22;6813;60.352;15.746;2022-08-19T14:18:16;25.40;99.90
13482;DHT22;6813;60.352;15.746;2022-08-19T14:20:42;25.50;99.90
13482;DHT22;6813;60.352;15.746;2022-08-19T14:23:08;25.50;99.90
13482;DHT22;6813;60.352;15.746;2022-08-19T14:25:34;25.40;99.90
13482;DHT22;6813;60.352;15.746;2022-08-19T14:28:01;25.30;99.90
13482;DHT22;6813;60.352;15.746;2022-08-19T14:30:32;25.30;99.90
13482;DHT22;6813;60.352;15.746;2022-08-19T14:33:00;25.30;99.90
13482;DHT22;6813;60.352;15.746;2022-08-19T14:35:27;25.40;99.90
13482;DHT22;6813;60.352;15.746;2022-08-19T14:37:54;25.30;99.90
13482;DHT22;6813;60.352;15.746;2022-08-19T14:40:22;25.30;99.90
13482;DHT22;6813;60.352;15.746;2022-08-19T14:42:55;25.30;99.90
13482;DHT22;6813;60.352;15.746;2022-08-19T14:45:28;25.30;99.90
13482;DHT22;6813;60.352;15.746;2022-08-19T14:47:54;25.30;99.90
13482;DHT22;6813;60.352;15.746;2022-08-19T14:50:20;25.30;99.90
13482;DHT22;6813;60.352;15.746;2022-08-19T14:52:47;25.30;99.90
13482;DHT22;6813;60.352;15.746;2022-08-19T14:55:14;25.50;99.90
13482;DHT22;6813;60.352;15.746;2022-08-19T14:57:41;25.60;99.90
13482;DHT22;6813;60.352;15.746;2022-08-19T15:00:07;25.70;99.90
13482;DHT22;6813;60.352;15.746;2022-08-19T15:02:37;25.80;99.90
13482;DHT22;6813;60.352;15.746;2022-08-19T15:05:02;26.00;99.90
13482;DHT22;6813;60.352;15.746;2022-08-19T15:07:29;26.00;99.90
13482;DHT22;6813;60.352;15.746;2022-08-19T15:09:55;26.10;99.90
13482;DHT22;6813;60.352;15.746;2022-08-19T15:12:21;26.20;99.90
13482;DHT22;6813;60.352;15.746;2022-08-19T15:14:47;26.30;99.90
13482;DHT22;6813;60.352;15.746;2022-08-19T15:17:17;26.40;99.90
13482;DHT22;6813;60.352;15.746;2022-08-19T15:19:45;26.50;99.90
13482;DHT22;6813;60.352;15.746;2022-08-19T15:22:12;26.60;99.90
13482;DHT22;6813;60.352;15.746;2022-08-19T15:24:38;26.50;99.90
13482;DHT22;6813;60.352;15.746;2022-08-19T15:27:04;26.60;99.90
13482;DHT22;6813;60.352;15.746;2022-08-19T15:29:31;26.70;99.90
13482;DHT22;6813;60.352;15.746;2022-08-19T15:31:57;26.80;99.90
13482;DHT22;6813;60.352;15.746;2022-08-19T15:34:24;26.80;99.90
13482;DHT22;6813;60.352;15.746;2022-08-19T15:36:53;26.60;99.90
13482;DHT22;6813;60.352;15.746;2022-08-19T15:39:19;26.60;99.90
13482;DHT22;6813;60.352;15.746;2022-08-19T15:41:46;26.70;99.90
13482;DHT22;6813;60.352;15.746;2022-08-19T15:44:15;26.80;99.90
13482;DHT22;6813;60.352;15.746;2022-08-19T15:46:44;26.90;99.90
13482;DHT22;6813;60.352;15.746;2022-08-19T15:49:12;27.00;99.90
13482;DHT22;6813;60.352;15.746;2022-08-19T15:51:39;27.10;99.90